createdAt,value
2017-09-04T00:00:03.737Z,996.35
2017-09-04T00:01:14.081Z,996.32
2017-09-04T00:02:24.152Z,996.37
2017-09-04T00:03:34.163Z,996.4
2017-09-04T00:04:44.194Z,996.39
2017-09-04T00:05:54.215Z,996.38
2017-09-04T00:07:04.606Z,996.34
2017-09-04T00:08:14.651Z,996.4
2017-09-04T00:09:24.999Z,996.39
2017-09-04T00:10:35.341Z,996.42
2017-09-04T00:11:45.366Z,996.41
2017-09-04T00:12:55.389Z,996.39
2017-09-04T00:14:05.769Z,996.36
2017-09-04T00:15:15.812Z,996.35
2017-09-04T00:16:25.849Z,996.35
2017-09-04T00:17:36.190Z,996.33
2017-09-04T00:18:46.534Z,996.32
2017-09-04T00:19:56.875Z,996.31
2017-09-04T00:21:07.221Z,996.31
2017-09-04T00:22:16.927Z,996.32
2017-09-04T00:23:27.263Z,996.29
2017-09-04T00:24:37.302Z,996.24
2017-09-04T00:25:47.632Z,996.22
2017-09-04T00:26:57.661Z,996.23
2017-09-04T00:28:07.686Z,996.19
2017-09-04T00:29:18.025Z,996.18
2017-09-04T00:30:28.062Z,996.2
2017-09-04T00:31:38.441Z,996.17
2017-09-04T00:32:48.788Z,996.19
2017-09-04T00:33:59.124Z,996.25
2017-09-04T00:35:09.478Z,996.22
2017-09-04T00:36:19.839Z,996.25
2017-09-04T00:37:29.862Z,996.25
2017-09-04T00:38:40.211Z,996.24
2017-09-04T00:39:50.555Z,996.25
2017-09-04T00:41:00.897Z,996.3
2017-09-04T00:42:11.232Z,996.3
2017-09-04T00:43:21.640Z,996.23
2017-09-04T00:44:31.974Z,996.3
2017-09-04T00:45:42.307Z,996.29
2017-09-04T00:46:52.329Z,996.26
2017-09-04T00:48:02.671Z,996.35
2017-09-04T00:49:13.064Z,996.33
2017-09-04T00:50:23.076Z,996.36
2017-09-04T00:51:33.402Z,996.31
2017-09-04T00:52:42.792Z,996.32
2017-09-04T00:53:53.125Z,996.28
2017-09-04T00:55:03.467Z,996.24
2017-09-04T00:56:13.702Z,996.26
2017-09-04T00:57:24.046Z,996.24
2017-09-04T00:58:34.062Z,996.28
2017-09-04T00:59:44.401Z,996.23
2017-09-04T01:00:54.791Z,996.21
2017-09-04T01:02:04.499Z,996.2
2017-09-04T01:03:14.836Z,996.26
2017-09-04T01:04:25.179Z,996.18
2017-09-04T01:05:35.207Z,996.19
2017-09-04T01:06:45.601Z,996.2
2017-09-04T01:07:55.947Z,996.2
2017-09-04T01:09:06.312Z,996.19
2017-09-04T01:10:16.649Z,996.19
2017-09-04T01:11:26.695Z,996.14
2017-09-04T01:12:37.093Z,996.21
2017-09-04T01:13:47.435Z,996.24
2017-09-04T01:14:57.808Z,996.36
2017-09-04T01:16:07.834Z,996.12
2017-09-04T01:17:18.183Z,996.2
2017-09-04T01:18:28.578Z,996.16
2017-09-04T01:19:38.597Z,996.19
2017-09-04T01:20:48.920Z,996.19
2017-09-04T01:22:00.553Z,996.17
2017-09-04T01:23:10.250Z,996.26
2017-09-04T01:24:20.271Z,996.22
2017-09-04T01:25:30.617Z,996.33
2017-09-04T01:26:40.636Z,996.32
2017-09-04T01:27:50.981Z,996.3
2017-09-04T01:29:01.012Z,996.31
2017-09-04T01:30:11.391Z,996.26
2017-09-04T01:31:21.416Z,996.31
2017-09-04T01:32:31.788Z,996.28
2017-09-04T01:33:41.500Z,996.27
2017-09-04T01:34:51.523Z,996.29
2017-09-04T01:36:01.924Z,996.25
2017-09-04T01:37:12.268Z,996.29
2017-09-04T01:38:22.592Z,996.28
2017-09-04T01:39:32.946Z,996.28
2017-09-04T01:40:43.288Z,996.27
2017-09-04T01:41:53.833Z,996.26
2017-09-04T01:43:04.174Z,996.26
2017-09-04T01:44:14.523Z,996.27
2017-09-04T01:45:24.858Z,996.28
2017-09-04T01:46:34.875Z,996.28
2017-09-04T01:47:44.958Z,996.24
2017-09-04T01:48:54.343Z,996.29
2017-09-04T01:50:04.694Z,996.28
2017-09-04T01:51:14.720Z,996.31
2017-09-04T01:52:24.753Z,996.33
2017-09-04T01:53:35.150Z,996.33
2017-09-04T01:54:45.480Z,996.34
2017-09-04T01:55:55.491Z,996.39
2017-09-04T01:57:07.645Z,996.4
2017-09-04T01:58:20.006Z,996.4
2017-09-04T01:59:30.395Z,996.46
2017-09-04T02:00:42.082Z,996.46
2017-09-04T02:01:52.212Z,996.39
2017-09-04T02:03:02.235Z,996.41
2017-09-04T02:04:12.561Z,996.45
2017-09-04T02:05:22.283Z,996.55
2017-09-04T02:06:32.301Z,996.48
2017-09-04T02:07:42.638Z,996.5
2017-09-04T02:08:52.979Z,996.47
2017-09-04T02:10:03.324Z,996.44
2017-09-04T02:11:13.706Z,996.42
2017-09-04T02:12:24.039Z,996.48
2017-09-04T02:13:34.377Z,996.48
2017-09-04T02:14:44.718Z,996.41
2017-09-04T02:15:55.068Z,996.44
2017-09-04T02:17:04.808Z,996.49
2017-09-04T02:18:14.853Z,996.44
2017-09-04T02:19:25.195Z,996.42
2017-09-04T02:20:35.531Z,996.46
2017-09-04T02:21:45.903Z,996.46
2017-09-04T02:22:55.970Z,996.46
2017-09-04T02:24:06.322Z,996.44
2017-09-04T02:25:16.669Z,996.46
2017-09-04T02:26:27.042Z,996.46
2017-09-04T02:27:37.403Z,996.48
2017-09-04T02:28:47.743Z,996.47
2017-09-04T02:29:58.086Z,996.5
2017-09-04T02:31:08.432Z,996.43
2017-09-04T02:32:18.779Z,996.47
2017-09-04T02:33:29.116Z,996.45
2017-09-04T02:34:38.875Z,996.47
2017-09-04T02:35:49.231Z,996.41
2017-09-04T02:36:59.590Z,996.44
2017-09-04T02:38:09.940Z,996.41
2017-09-04T02:39:20.279Z,996.41
2017-09-04T02:40:30.356Z,996.42
2017-09-04T02:41:40.704Z,996.43
2017-09-04T02:42:50.735Z,996.44
2017-09-04T02:44:00.747Z,996.47
2017-09-04T02:45:11.084Z,996.42
2017-09-04T02:46:21.428Z,996.5
2017-09-04T02:47:32.671Z,996.57
2017-09-04T02:48:43.016Z,996.5
2017-09-04T02:49:53.346Z,996.49
2017-09-04T02:51:03.697Z,996.5
2017-09-04T02:52:14.089Z,996.57
2017-09-04T02:53:24.429Z,996.53
2017-09-04T02:54:34.779Z,996.55
2017-09-04T02:55:46.185Z,996.56
2017-09-04T02:56:58.276Z,996.56
2017-09-04T02:58:08.018Z,996.52
2017-09-04T02:59:18.563Z,996.54
2017-09-04T03:00:28.577Z,996.49
2017-09-04T03:01:38.611Z,996.52
2017-09-04T03:33:30.876Z,996.56
2017-09-04T03:34:41.195Z,996.51
2017-09-04T03:35:50.895Z,996.54
2017-09-04T03:37:00.911Z,996.54
2017-09-04T03:38:11.252Z,996.58
2017-09-04T03:39:21.647Z,996.56
2017-09-04T03:40:31.973Z,996.57
2017-09-04T03:41:42.308Z,996.61
2017-09-04T03:42:52.326Z,996.55
2017-09-04T03:44:02.334Z,996.56
2017-09-04T03:45:12.664Z,996.58
2017-09-04T03:46:23.015Z,996.6
2017-09-04T03:47:33.361Z,996.59
2017-09-04T03:48:43.380Z,996.62
2017-09-04T03:49:53.398Z,996.62
2017-09-04T03:51:03.783Z,996.59
2017-09-04T03:52:13.804Z,996.62
2017-09-04T03:53:24.142Z,996.64
2017-09-04T03:54:34.478Z,996.64
2017-09-04T03:55:44.813Z,996.63
2017-09-04T03:56:55.201Z,996.62
2017-09-04T03:58:05.215Z,996.66
2017-09-04T03:59:15.608Z,996.65
2017-09-04T04:00:25.638Z,996.68
2017-09-04T04:01:35.991Z,996.69
2017-09-04T04:02:46.384Z,996.68
2017-09-04T04:03:56.722Z,996.71
2017-09-04T04:05:07.079Z,996.68
2017-09-04T04:06:17.101Z,996.7
2017-09-04T04:07:27.137Z,996.73
2017-09-04T04:08:37.517Z,996.72
2017-09-04T04:09:47.877Z,996.71
2017-09-04T04:10:58.216Z,996.69
2017-09-04T04:12:08.560Z,996.68
2017-09-04T04:13:18.936Z,996.67
2017-09-04T04:14:28.999Z,996.72
2017-09-04T04:15:40.586Z,996.7
2017-09-04T04:16:50.927Z,996.74
2017-09-04T04:18:00.936Z,996.69
2017-09-04T04:19:11.280Z,996.7
2017-09-04T04:20:21.657Z,996.73
2017-09-04T04:21:31.676Z,996.77
2017-09-04T04:22:41.372Z,996.78
2017-09-04T04:23:51.392Z,996.81
2017-09-04T04:25:01.730Z,996.84
2017-09-04T04:26:11.432Z,996.83
2017-09-04T04:27:21.152Z,996.83
2017-09-04T04:28:31.478Z,996.79
2017-09-04T04:29:41.827Z,996.79
2017-09-04T04:30:52.167Z,996.86
2017-09-04T04:32:01.876Z,996.83
2017-09-04T04:33:11.897Z,996.83
2017-09-04T04:34:22.287Z,996.83
2017-09-04T04:35:32.300Z,996.88
2017-09-04T04:36:42.553Z,996.87
2017-09-04T04:37:52.903Z,996.88
2017-09-04T04:39:03.243Z,996.86
2017-09-04T04:40:13.588Z,996.88
2017-09-04T04:41:23.944Z,996.88
2017-09-04T04:42:34.275Z,996.88
2017-09-04T04:43:44.618Z,996.91
2017-09-04T04:44:56.440Z,996.88
2017-09-04T04:46:06.843Z,996.89
2017-09-04T04:47:17.180Z,996.89
2017-09-04T04:48:27.520Z,997.07
2017-09-04T04:49:37.536Z,997.25
2017-09-04T04:50:47.884Z,997.53
2017-09-04T04:51:57.909Z,997.55
2017-09-04T04:53:07.632Z,997.39
2017-09-04T04:54:18.193Z,997.41
2017-09-04T04:55:27.895Z,997.47
2017-09-04T04:56:38.234Z,997.38
2017-09-04T04:57:48.580Z,997.39
2017-09-04T04:58:58.929Z,997.43
2017-09-04T05:00:09.277Z,997.45
2017-09-04T05:01:20.925Z,997.41
2017-09-04T05:02:30.977Z,997.44
2017-09-04T05:03:41.378Z,997.47
2017-09-04T05:04:50.774Z,997.51
2017-09-04T05:06:01.120Z,997.55
2017-09-04T05:07:11.143Z,997.57
2017-09-04T05:08:20.861Z,997.54
2017-09-04T05:09:31.219Z,997.53
2017-09-04T05:10:41.266Z,997.53
2017-09-04T05:11:51.621Z,997.61
2017-09-04T05:13:01.968Z,997.56
2017-09-04T05:14:12.304Z,997.49
2017-09-04T05:15:22.057Z,997.51
2017-09-04T05:16:32.412Z,997.58
2017-09-04T05:17:42.759Z,997.48
2017-09-04T05:18:52.787Z,997.36
2017-09-04T05:20:03.138Z,997.22
2017-09-04T05:21:13.526Z,997.08
2017-09-04T05:22:23.906Z,997.14
2017-09-04T05:23:34.260Z,997.12
2017-09-04T05:24:44.609Z,997.11
2017-09-04T05:25:54.945Z,997.1
2017-09-04T05:27:04.990Z,997.12
2017-09-04T05:28:15.330Z,997.14
2017-09-04T05:29:25.680Z,997.14
2017-09-04T05:30:35.713Z,997.22
2017-09-04T05:31:45.751Z,997.24
2017-09-04T05:32:56.146Z,997.25
2017-09-04T05:34:06.479Z,997.22
2017-09-04T05:35:16.505Z,997.2
2017-09-04T05:36:26.528Z,997.18
2017-09-04T05:37:36.869Z,997.22
2017-09-04T05:38:46.945Z,997.2
2017-09-04T05:39:57.272Z,997.2
2017-09-04T05:41:08.469Z,997.19
2017-09-04T05:42:18.822Z,997.26
2017-09-04T05:43:28.853Z,997.23
2017-09-04T05:44:38.894Z,997.35
2017-09-04T05:45:49.248Z,997.42
2017-09-04T05:46:59.580Z,997.39
2017-09-04T05:48:09.925Z,997.36
2017-09-04T05:49:20.268Z,997.29
2017-09-04T05:50:30.676Z,997.32
2017-09-04T05:51:41.017Z,997.34
2017-09-04T05:52:50.722Z,997.39
2017-09-04T05:54:01.093Z,997.43
2017-09-04T05:55:11.122Z,997.41
2017-09-04T05:56:21.208Z,997.32
2017-09-04T05:57:31.240Z,997.33
2017-09-04T05:58:41.282Z,997.32
2017-09-04T05:59:51.637Z,997.36
2017-09-04T06:01:01.974Z,997.42
2017-09-04T06:02:12.361Z,997.44
2017-09-04T06:03:22.702Z,997.4
2017-09-04T06:04:32.715Z,997.39
2017-09-04T06:05:43.077Z,997.33
2017-09-04T06:06:53.422Z,997.31
2017-09-04T06:08:03.494Z,997.36
2017-09-04T06:09:13.531Z,997.41
2017-09-04T06:10:23.866Z,997.44
2017-09-04T06:11:33.902Z,997.39
2017-09-04T06:12:44.236Z,997.4
2017-09-04T06:13:54.322Z,997.33
2017-09-04T06:15:04.663Z,997.42
2017-09-04T06:16:15.004Z,997.39
2017-09-04T06:17:25.345Z,997.4
2017-09-04T06:18:35.362Z,997.4
2017-09-04T06:19:45.761Z,997.43
2017-09-04T06:20:56.131Z,997.39
2017-09-04T06:22:06.476Z,997.38
2017-09-04T06:23:16.812Z,997.43
2017-09-04T06:24:26.880Z,997.47
2017-09-04T06:25:37.286Z,997.5
2017-09-04T06:26:47.638Z,997.47
2017-09-04T06:27:57.975Z,997.53
2017-09-04T06:29:08.317Z,997.54
2017-09-04T06:30:18.685Z,997.58
2017-09-04T06:31:29.026Z,997.57
2017-09-04T06:32:39.364Z,997.62
2017-09-04T06:33:49.721Z,997.63
2017-09-04T06:35:00.061Z,997.62
2017-09-04T06:36:10.405Z,997.65
2017-09-04T06:37:20.488Z,997.68
2017-09-04T06:38:30.835Z,997.69
2017-09-04T06:39:41.197Z,997.66
2017-09-04T06:40:51.534Z,997.74
2017-09-04T06:42:01.873Z,997.67
2017-09-04T06:43:12.280Z,997.71
2017-09-04T06:44:22.311Z,997.73
2017-09-04T06:45:32.644Z,997.7
2017-09-04T06:46:42.988Z,997.75
2017-09-04T06:47:53.012Z,997.78
2017-09-04T06:49:03.094Z,997.82
2017-09-04T06:50:13.449Z,997.83
2017-09-04T06:51:23.801Z,997.84
2017-09-04T06:52:34.152Z,997.83
2017-09-04T06:53:44.176Z,997.85
2017-09-04T06:54:54.562Z,997.89
2017-09-04T06:56:04.908Z,997.87
2017-09-04T06:57:15.260Z,997.93
2017-09-04T06:58:25.611Z,997.94
2017-09-04T06:59:35.657Z,997.92
2017-09-04T07:00:45.724Z,997.95
2017-09-04T07:01:55.751Z,997.99
2017-09-04T07:03:06.098Z,998
2017-09-04T07:04:16.439Z,998.02
2017-09-04T07:05:26.512Z,998.03
2017-09-04T07:06:36.857Z,998.03
2017-09-04T07:07:47.228Z,998.04
2017-09-04T07:08:57.574Z,998.05
2017-09-04T07:10:07.274Z,998.07
2017-09-04T07:11:17.610Z,998.07
2017-09-04T07:12:28.003Z,998.13
2017-09-04T07:13:38.024Z,998.06
2017-09-04T07:14:48.376Z,998.13
2017-09-04T07:15:58.393Z,998.15
2017-09-04T07:17:08.747Z,998.1
2017-09-04T07:18:19.143Z,998.1
2017-09-04T07:19:29.463Z,998.14
2017-09-04T07:20:39.800Z,998.15
2017-09-04T07:21:49.810Z,998.14
2017-09-04T07:22:59.530Z,998.09
2017-09-04T07:24:09.880Z,998.15
2017-09-04T07:25:19.910Z,998.18
2017-09-04T07:26:29.622Z,998.16
2017-09-04T07:27:39.668Z,998.21
2017-09-04T07:28:50.029Z,998.23
2017-09-04T07:30:00.426Z,998.22
2017-09-04T07:31:10.646Z,998.2
2017-09-04T07:32:20.994Z,998.22
2017-09-04T07:33:31.339Z,998.22
2017-09-04T07:34:41.357Z,998.21
2017-09-04T07:35:51.743Z,998.23
2017-09-04T07:37:02.116Z,998.28
2017-09-04T07:38:12.528Z,998.25
2017-09-04T07:39:22.877Z,998.26
2017-09-04T07:40:32.905Z,998.28
2017-09-04T07:41:42.990Z,998.32
2017-09-04T07:42:53.326Z,998.31
2017-09-04T07:44:03.660Z,998.33
2017-09-04T07:45:13.697Z,998.33
2017-09-04T07:46:24.046Z,998.36
2017-09-04T07:47:34.461Z,998.37
2017-09-04T07:48:44.807Z,998.4
2017-09-04T07:49:55.203Z,998.4
2017-09-04T07:51:05.242Z,998.42
2017-09-04T07:52:15.582Z,998.36
2017-09-04T07:53:25.957Z,998.41
2017-09-04T07:54:35.989Z,998.4
2017-09-04T07:55:46.328Z,998.45
2017-09-04T07:56:56.695Z,998.42
2017-09-04T07:58:07.042Z,998.37
2017-09-04T07:59:17.389Z,998.46
2017-09-04T08:00:27.412Z,998.39
2017-09-04T08:01:37.442Z,998.46
2017-09-04T08:02:47.786Z,998.46
2017-09-04T08:03:57.834Z,998.49
2017-09-04T08:05:08.222Z,998.49
2017-09-04T08:06:18.565Z,998.52
2017-09-04T08:07:28.903Z,998.53
2017-09-04T08:08:39.292Z,998.55
2017-09-04T08:09:49.331Z,998.51
2017-09-04T08:10:59.666Z,998.47
2017-09-04T08:12:09.687Z,998.47
2017-09-04T08:13:19.723Z,998.48
2017-09-04T08:14:30.066Z,998.49
2017-09-04T08:15:40.412Z,998.47
2017-09-04T08:16:50.800Z,998.52
2017-09-04T08:18:00.814Z,998.53
2017-09-04T08:19:11.156Z,998.51
2017-09-04T08:20:21.502Z,998.56
2017-09-04T08:21:31.835Z,998.54
2017-09-04T08:22:41.915Z,998.64
2017-09-04T08:23:52.264Z,998.56
2017-09-04T08:25:02.284Z,998.55
2017-09-04T08:26:12.635Z,998.57
2017-09-04T08:27:22.662Z,998.61
2017-09-04T08:28:33.002Z,998.59
2017-09-04T08:29:43.341Z,998.6
2017-09-04T08:30:53.687Z,998.59
2017-09-04T08:32:03.728Z,998.68
2017-09-04T08:33:14.065Z,998.6
2017-09-04T08:34:24.435Z,998.66
2017-09-04T08:35:34.807Z,998.73
2017-09-04T08:36:44.830Z,998.72
2017-09-04T08:37:55.173Z,998.84
2017-09-04T08:39:05.515Z,998.7
2017-09-04T08:40:15.909Z,998.68
2017-09-04T08:41:26.240Z,998.68
2017-09-04T08:42:36.257Z,998.69
2017-09-04T08:43:46.304Z,998.74
2017-09-04T08:44:56.322Z,998.7
2017-09-04T08:46:06.402Z,998.69
2017-09-04T08:47:16.756Z,998.76
2017-09-04T08:48:27.123Z,998.8
2017-09-04T08:49:37.470Z,998.81
2017-09-04T08:50:47.821Z,998.82
2017-09-04T08:51:58.169Z,998.79
2017-09-04T08:53:08.524Z,998.86
2017-09-04T08:54:18.866Z,998.87
2017-09-04T08:55:29.227Z,998.82
2017-09-04T08:56:39.575Z,998.88
2017-09-04T08:57:49.939Z,998.89
2017-09-04T08:59:00.288Z,998.86
2017-09-04T09:00:10.639Z,998.82
2017-09-04T09:01:20.660Z,998.83
2017-09-04T09:02:30.695Z,998.9
2017-09-04T09:03:41.048Z,998.9
2017-09-04T09:04:51.384Z,998.93
2017-09-04T09:06:01.726Z,998.88
2017-09-04T09:07:12.106Z,998.96
2017-09-04T09:08:22.142Z,998.97
2017-09-04T09:09:32.244Z,998.9
2017-09-04T09:10:42.290Z,998.96
2017-09-04T09:11:52.315Z,998.99
2017-09-04T09:13:02.687Z,999
2017-09-04T09:14:13.041Z,999.07
2017-09-04T09:15:23.431Z,999.06
2017-09-04T09:16:33.776Z,999.09
2017-09-04T09:17:43.497Z,999.1
2017-09-04T09:18:53.890Z,999.12
2017-09-04T09:20:03.941Z,999.1
2017-09-04T09:21:14.439Z,999.16
2017-09-04T09:22:25.196Z,999.13
2017-09-04T09:23:35.243Z,999.16
2017-09-04T09:24:45.582Z,999.18
2017-09-04T09:25:55.964Z,999.11
2017-09-04T09:27:05.677Z,999.17
2017-09-04T09:28:16.024Z,999.16
2017-09-04T09:29:29.791Z,999.11
2017-09-04T09:30:40.159Z,999.14
2017-09-04T09:31:50.709Z,999.19
2017-09-04T09:33:00.782Z,999.16
2017-09-04T09:34:10.822Z,999.13
2017-09-04T09:35:21.162Z,999.19
2017-09-04T09:36:31.185Z,999.22
2017-09-04T09:37:40.907Z,999.11
2017-09-04T09:38:51.308Z,999.13
2017-09-04T09:40:01.676Z,999.14
2017-09-04T09:41:11.734Z,999.16
2017-09-04T09:42:21.749Z,999.14
2017-09-04T09:43:32.727Z,999.19
2017-09-04T09:44:43.123Z,999.13
2017-09-04T09:45:53.165Z,999.17
2017-09-04T09:47:05.506Z,999.14
2017-09-04T09:48:15.852Z,999.2
2017-09-04T09:49:26.184Z,999.2
2017-09-04T09:50:35.779Z,999.15
2017-09-04T09:51:46.137Z,999.21
2017-09-04T09:52:56.504Z,999.2
2017-09-04T09:54:06.841Z,999.23
2017-09-04T09:55:17.191Z,999.21
2017-09-04T09:56:27.601Z,999.19
2017-09-04T09:57:37.630Z,999.15
2017-09-04T09:58:47.983Z,999.14
2017-09-04T09:59:58.041Z,999.21
2017-09-04T10:01:08.399Z,999.14
2017-09-04T10:02:18.110Z,999.19
2017-09-04T10:03:28.447Z,999.21
2017-09-04T10:04:38.790Z,999.19
2017-09-04T10:05:48.835Z,999.23
2017-09-04T10:06:59.212Z,999.22
2017-09-04T10:08:09.565Z,999.23
2017-09-04T10:09:19.914Z,999.14
2017-09-04T10:10:29.948Z,999.13
2017-09-04T10:11:40.175Z,999.12
2017-09-04T10:12:50.216Z,999.12
2017-09-04T10:14:00.296Z,999.19
2017-09-04T10:15:10.661Z,999.11
2017-09-04T10:16:21.026Z,999.18
2017-09-04T10:17:31.383Z,999.19
2017-09-04T10:18:41.426Z,999.19
2017-09-04T10:19:51.766Z,999.17
2017-09-04T10:21:02.128Z,999.08
2017-09-04T10:22:12.486Z,999.13
2017-09-04T10:23:22.527Z,999.09
2017-09-04T10:24:32.860Z,999.1
2017-09-04T10:25:43.275Z,999.03
2017-09-04T10:26:53.322Z,999.11
2017-09-04T10:28:03.665Z,999.14
2017-09-04T10:29:14.016Z,999.02
2017-09-04T10:30:23.723Z,999.06
2017-09-04T10:31:34.129Z,999.05
2017-09-04T10:32:44.499Z,999.06
2017-09-04T10:33:54.837Z,999.09
2017-09-04T10:35:04.866Z,999.05
2017-09-04T10:36:15.216Z,999.09
2017-09-04T10:37:24.664Z,999.11
2017-09-04T10:38:35.020Z,999.07
2017-09-04T10:39:45.056Z,999.08
2017-09-04T10:40:55.418Z,999.06
2017-09-04T10:42:05.783Z,999.07
2017-09-04T10:43:16.129Z,999.07
2017-09-04T10:44:26.153Z,999.08
2017-09-04T10:45:36.506Z,999.11
2017-09-04T10:46:46.863Z,999.09
2017-09-04T10:47:57.200Z,999.12
2017-09-04T10:49:07.270Z,999.15
2017-09-04T10:50:17.622Z,999.13
2017-09-04T10:51:28.010Z,999.14
2017-09-04T10:52:38.067Z,999.09
2017-09-04T10:53:48.423Z,999.09
2017-09-04T10:54:58.825Z,999.07
2017-09-04T10:56:09.181Z,999.06
2017-09-04T10:57:19.207Z,999.05
2017-09-04T10:58:29.550Z,999.08
2017-09-04T10:59:39.915Z,999.13
2017-09-04T11:00:50.325Z,999.14
2017-09-04T11:02:00.671Z,999.18
2017-09-04T11:03:11.042Z,999.24
2017-09-04T11:04:21.064Z,999.22
2017-09-04T11:05:31.097Z,999.17
2017-09-04T11:06:41.438Z,999.13
2017-09-04T11:07:51.789Z,999.17
2017-09-04T11:09:02.134Z,999.13
2017-09-04T11:10:12.483Z,999.21
2017-09-04T11:11:22.519Z,999.2
2017-09-04T11:12:32.867Z,999.22
2017-09-04T11:13:42.914Z,999.17
2017-09-04T11:14:52.627Z,999.2
2017-09-04T11:16:02.993Z,999.18
2017-09-04T11:17:13.350Z,999.16
2017-09-04T11:18:23.845Z,999.17
2017-09-04T11:19:34.206Z,999.18
2017-09-04T11:20:44.596Z,999.17
2017-09-04T11:21:54.956Z,999.12
2017-09-04T11:23:04.993Z,999.11
2017-09-04T11:24:15.391Z,999.1
2017-09-04T11:25:25.769Z,999.09
2017-09-04T11:26:36.123Z,999.15
2017-09-04T11:27:46.170Z,999.13
2017-09-04T11:28:56.533Z,999.1
2017-09-04T11:30:06.879Z,999.15
2017-09-04T11:31:17.426Z,999.14
2017-09-04T11:32:27.777Z,999.09
2017-09-04T11:33:38.127Z,999.14
2017-09-04T11:34:48.516Z,999.16
2017-09-04T11:35:58.882Z,999.1
2017-09-04T11:37:08.593Z,999.08
2017-09-04T11:38:18.941Z,999.11
2017-09-04T11:39:29.306Z,999.15
2017-09-04T11:40:39.649Z,999.13
2017-09-04T11:41:49.695Z,999.15
2017-09-04T11:43:00.044Z,999.17
2017-09-04T11:44:10.085Z,999.15
2017-09-04T11:45:20.437Z,999.17
2017-09-04T11:46:30.839Z,999.18
2017-09-04T11:47:40.869Z,999.12
2017-09-04T11:48:50.894Z,998.99
2017-09-04T11:50:00.918Z,999.01
2017-09-04T11:51:10.966Z,999.02
2017-09-04T11:52:21.312Z,999.02
2017-09-04T11:53:31.660Z,999.01
2017-09-04T11:54:42.015Z,999.07
2017-09-04T11:55:52.044Z,999.07
2017-09-04T11:57:02.390Z,999.07
2017-09-04T11:58:13.659Z,999.2
2017-09-04T11:59:24.035Z,999.16
2017-09-04T12:00:34.399Z,999.15
2017-09-04T12:01:44.767Z,999.2
2017-09-04T12:02:55.163Z,999.22
2017-09-04T12:04:05.515Z,999.19
2017-09-04T12:05:15.894Z,999.15
2017-09-04T12:06:26.288Z,999.08
2017-09-04T12:07:36.360Z,999.09
2017-09-04T12:08:46.802Z,999.11
2017-09-04T12:09:57.195Z,999.07
2017-09-04T12:11:07.578Z,999.06
2017-09-04T12:12:17.939Z,999.05
2017-09-04T12:13:29.593Z,999.02
2017-09-04T12:14:40.011Z,998.98
2017-09-04T12:15:50.045Z,999.02
2017-09-04T12:17:00.403Z,999.03
2017-09-04T12:18:10.761Z,999.05
2017-09-04T12:19:22.144Z,999.12
2017-09-04T12:20:32.549Z,999.02
2017-09-04T12:21:42.908Z,999.02
2017-09-04T12:22:52.974Z,999.02
2017-09-04T12:24:03.008Z,999.01
2017-09-04T12:25:13.381Z,998.96
2017-09-04T12:26:23.822Z,998.88
2017-09-04T12:27:34.209Z,998.86
2017-09-04T12:28:44.575Z,998.94
2017-09-04T12:29:54.969Z,998.9
2017-09-04T12:31:05.366Z,998.81
2017-09-04T12:32:15.529Z,998.85
2017-09-04T12:33:25.968Z,998.94
2017-09-04T12:34:36.016Z,998.94
2017-09-04T12:35:46.054Z,998.88
2017-09-04T12:36:56.424Z,998.9
2017-09-04T12:38:07.076Z,998.91
2017-09-04T12:39:17.443Z,998.9
2017-09-04T12:40:27.806Z,998.9
2017-09-04T12:41:38.167Z,998.88
2017-09-04T12:42:48.520Z,998.91
2017-09-04T12:43:58.722Z,998.83
2017-09-04T12:45:09.096Z,998.94
2017-09-04T12:46:19.475Z,998.95
2017-09-04T12:47:29.857Z,998.94
2017-09-04T12:48:40.221Z,998.94
2017-09-04T12:49:50.646Z,998.97
2017-09-04T12:51:00.686Z,998.92
2017-09-04T12:52:10.394Z,998.91
2017-09-04T12:53:20.442Z,998.91
2017-09-04T12:54:30.469Z,998.92
2017-09-04T12:55:40.866Z,998.93
2017-09-04T12:56:51.254Z,998.9
2017-09-04T12:58:03.771Z,998.84
2017-09-04T12:59:13.812Z,998.9
2017-09-04T13:00:24.195Z,998.9
2017-09-04T13:01:34.600Z,998.88
2017-09-04T13:02:44.952Z,998.92
2017-09-04T13:03:55.309Z,998.87
2017-09-04T13:05:05.671Z,998.88
2017-09-04T13:06:16.770Z,998.88
2017-09-04T13:07:26.828Z,998.83
2017-09-04T13:08:36.931Z,998.85
2017-09-04T13:09:46.965Z,998.85
2017-09-04T13:10:57.346Z,998.91
2017-09-04T13:12:07.414Z,998.91
2017-09-04T13:13:17.769Z,998.88
2017-09-04T13:14:28.130Z,998.77
2017-09-04T13:15:38.482Z,998.8
2017-09-04T13:16:48.849Z,998.86
2017-09-04T13:17:58.893Z,998.94
2017-09-04T13:19:09.238Z,998.92
2017-09-04T13:20:19.639Z,998.91
2017-09-04T13:21:29.664Z,998.88
2017-09-04T13:22:39.389Z,998.89
2017-09-04T13:23:49.749Z,998.86
2017-09-04T13:24:59.840Z,998.84
2017-09-04T13:26:09.546Z,998.79
2017-09-04T13:27:19.274Z,998.87
2017-09-04T13:28:29.672Z,998.85
2017-09-04T13:29:40.068Z,998.86
2017-09-04T13:30:50.146Z,998.83
2017-09-04T13:32:00.500Z,998.88
2017-09-04T13:33:10.848Z,998.83
2017-09-04T13:34:21.570Z,998.79
2017-09-04T13:35:31.952Z,998.91
2017-09-04T13:36:41.991Z,998.85
2017-09-04T13:37:52.355Z,998.83
2017-09-04T13:39:02.080Z,998.81
2017-09-04T13:40:12.128Z,998.83
2017-09-04T13:41:22.463Z,998.83
2017-09-04T13:42:32.867Z,998.88
2017-09-04T13:43:43.226Z,998.87
2017-09-04T13:44:53.571Z,998.9
2017-09-04T13:46:03.941Z,998.92
2017-09-04T13:47:14.286Z,998.94
2017-09-04T13:48:24.361Z,998.92
2017-09-04T13:49:34.418Z,998.87
2017-09-04T13:50:44.766Z,998.93
2017-09-04T13:51:55.139Z,998.92
2017-09-04T13:53:05.494Z,998.85
2017-09-04T13:54:15.934Z,998.86
2017-09-04T13:55:26.286Z,998.81
2017-09-04T13:56:37.407Z,998.84
2017-09-04T13:57:47.466Z,998.83
2017-09-04T13:58:57.494Z,998.79
2017-09-04T14:00:07.924Z,998.81
2017-09-04T14:01:19.792Z,998.81
2017-09-04T14:02:30.154Z,998.82
2017-09-04T14:03:40.545Z,998.77
2017-09-04T14:04:50.591Z,998.8
2017-09-04T14:06:01.013Z,998.76
2017-09-04T14:07:11.051Z,998.78
2017-09-04T14:08:21.415Z,998.77
2017-09-04T14:09:31.806Z,998.83
2017-09-04T14:10:43.441Z,998.76
2017-09-04T14:11:53.850Z,998.8
2017-09-04T14:13:03.593Z,998.77
2017-09-04T14:14:13.633Z,998.8
2017-09-04T14:15:24.003Z,998.81
2017-09-04T14:16:34.343Z,998.82
2017-09-04T14:17:44.696Z,998.8
2017-09-04T14:18:54.735Z,998.75
2017-09-04T14:20:05.088Z,998.7
2017-09-04T14:21:15.472Z,998.77
2017-09-04T14:22:25.521Z,998.75
2017-09-04T14:23:35.937Z,998.75
2017-09-04T14:24:45.972Z,998.71
2017-09-04T14:25:56.006Z,998.72
2017-09-04T14:27:08.571Z,998.74
2017-09-04T14:28:18.933Z,998.71
2017-09-04T14:29:29.597Z,998.74
2017-09-04T14:30:39.975Z,998.7
2017-09-04T14:31:50.321Z,998.77
2017-09-04T14:33:00.669Z,998.73
2017-09-04T14:34:10.710Z,998.71
2017-09-04T14:35:21.125Z,998.77
2017-09-04T14:36:31.496Z,998.75
2017-09-04T14:37:41.546Z,998.68
2017-09-04T14:38:51.907Z,998.72
2017-09-04T14:40:01.972Z,998.68
2017-09-04T14:41:12.064Z,998.72
2017-09-04T14:42:22.118Z,998.75
2017-09-04T14:43:32.837Z,998.72
2017-09-04T14:44:43.188Z,998.69
2017-09-04T14:45:53.242Z,998.7
2017-09-04T14:47:03.665Z,998.7
2017-09-04T14:48:14.029Z,998.73
2017-09-04T14:49:26.624Z,998.67
2017-09-04T14:50:37.030Z,998.69
2017-09-04T14:51:47.406Z,998.72
2017-09-04T14:52:57.520Z,998.69
2017-09-04T14:54:07.904Z,998.73
2017-09-04T14:55:18.251Z,998.75
2017-09-04T14:56:28.305Z,998.71
2017-09-04T14:57:38.000Z,998.66
2017-09-04T14:58:48.416Z,998.73
2017-09-04T14:59:58.798Z,998.82
2017-09-04T15:01:09.159Z,998.79
2017-09-04T15:02:18.892Z,998.78
2017-09-04T15:03:29.254Z,998.76
2017-09-04T15:04:39.291Z,998.75
2017-09-04T15:05:49.671Z,998.75
2017-09-04T15:07:00.053Z,998.71
2017-09-04T15:08:10.427Z,998.64
2017-09-04T15:09:20.801Z,998.67
2017-09-04T15:10:31.010Z,998.65